Time;durP1;ratioP1;P1;durP2;ratioP2;P2;SDS_P1;SDS_P2;PMS_P1;PMS_P2;Temp;Humidity;BMP_temperature;BMP_pressure;BME280_temperature;BME280_humidity;BME280_pressure;Samples;Min_cycle;Max_cycle;Signal;HPM_P1;HPM_P2
2023/04/26 00:02:06;;;;;;;3.90;3.10;;;8.50;99.90;;;;;;5048435;28;20453;-58
2023/04/26 00:04:32;;;;;;;4.07;2.83;;;8.40;99.90;;;;;;5050922;28;20270;-59
2023/04/26 00:06:59;;;;;;;4.73;2.80;;;8.40;99.90;;;;;;5050738;28;20554;-59
2023/04/26 00:09:25;;;;;;;3.60;2.67;;;8.40;99.90;;;;;;5051514;28;20454;-59
2023/04/26 00:11:50;;;;;;;5.03;2.77;;;8.40;1.00;;;;;;5049953;28;20459;-58
2023/04/26 00:14:16;;;;;;;3.13;2.80;;;8.50;99.90;;;;;;5045551;28;20452;-59
2023/04/26 00:16:42;;;;;;;5.10;3.10;;;8.50;1.00;;;;;;5046261;28;20196;-58
2023/04/26 00:19:08;;;;;;;2.90;2.57;;;8.50;1.00;;;;;;5045512;28;20209;-58
2023/04/26 00:21:34;;;;;;;5.00;3.17;;;8.30;1.00;;;;;;5051045;28;20181;-58
2023/04/26 00:24:00;;;;;;;3.37;2.27;;;8.40;1.00;;;;;;5048715;28;21006;-58
2023/04/26 00:26:25;;;;;;;5.00;3.33;;;8.40;1.00;;;;;;5048833;28;20196;-58
2023/04/26 00:28:51;;;;;;;5.10;3.40;;;8.20;1.00;;;;;;5048453;28;20495;-59
2023/04/26 00:31:17;;;;;;;5.00;2.33;;;8.30;1.00;;;;;;5051021;28;20184;-59
2023/04/26 00:33:43;;;;;;;4.47;2.80;;;8.20;1.00;;;;;;5046592;28;20184;-59
2023/04/26 00:36:09;;;;;;;6.20;2.77;;;8.30;1.00;;;;;;5045391;28;20214;-58
2023/04/26 00:38:35;;;;;;;4.13;2.97;;;8.20;1.00;;;;;;5048562;28;20470;-59
2023/04/26 00:41:00;;;;;;;4.83;3.80;;;8.20;1.00;;;;;;5046872;28;20973;-58
2023/04/26 00:43:26;;;;;;;5.20;2.90;;;8.20;1.00;;;;;;5050568;28;21030;-58
2023/04/26 00:45:52;;;;;;;4.27;2.97;;;8.20;1.00;;;;;;5047288;28;20193;-59
2023/04/26 00:48:18;;;;;;;8.90;3.00;;;8.10;1.00;;;;;;5044074;28;20185;-59
2023/04/26 00:50:44;;;;;;;3.90;2.97;;;8.10;1.00;;;;;;5047328;28;20199;-59
2023/04/26 00:53:13;;;;;;;5.63;3.17;;;8.10;1.00;;;;;;5047742;28;20450;-59
2023/04/26 00:55:40;;;;;;;4.43;2.60;;;8.00;1.00;;;;;;5041041;28;20228;-58
2023/04/26 00:58:05;;;;;;;2.77;2.57;;;8.00;1.00;;;;;;5045440;28;21019;-59
2023/04/26 01:00:31;;;;;;;4.23;3.00;;;7.90;1.00;;;;;;5047148;28;20443;-58
2023/04/26 01:02:57;;;;;;;4.10;2.83;;;8.00;1.00;;;;;;5045264;28;20196;-59
2023/04/26 01:05:23;;;;;;;3.70;2.73;;;8.10;1.00;;;;;;5047471;28;20772;-59
2023/04/26 01:07:49;;;;;;;5.17;3.10;;;7.90;1.00;;;;;;5047865;28;20451;-58
2023/04/26 01:10:16;;;;;;;4.30;2.90;;;7.90;1.00;;;;;;5044023;28;20254;-59
2023/04/26 01:12:42;;;;;;;3.73;3.33;;;7.60;1.00;;;;;;5043251;28;21143;-59
2023/04/26 01:15:10;;;;;;;3.30;2.63;;;7.60;1.00;;;;;;5049010;28;20443;-59
2023/04/26 01:17:36;;;;;;;5.77;3.17;;;7.50;1.00;;;;;;5046168;28;20535;-58
2023/04/26 01:20:03;;;;;;;4.07;2.90;;;7.50;1.00;;;;;;5046363;28;20483;-57
2023/04/26 01:22:32;;;;;;;7.53;2.93;;;7.40;1.00;;;;;;5050271;28;20447;-58
2023/04/26 01:25:00;;;;;;;8.77;3.40;;;7.40;1.00;;;;;;5045180;28;20452;-58
2023/04/26 01:27:25;;;;;;;5.47;3.00;;;7.40;1.00;;;;;;5045675;28;20505;-58
2023/04/26 01:29:51;;;;;;;7.80;3.13;;;7.50;1.00;;;;;;5050739;28;20442;-58
2023/04/26 01:32:17;;;;;;;7.33;3.10;;;7.60;1.00;;;;;;5048458;28;20354;-59
2023/04/26 01:34:43;;;;;;;10.07;3.33;;;7.50;1.00;;;;;;5045282;28;20200;-58
2023/04/26 01:37:08;;;;;;;3.50;3.20;;;7.40;1.00;;;;;;5047823;28;20235;-58
2023/04/26 01:39:35;;;;;;;3.60;2.70;;;7.30;1.00;;;;;;5049563;28;20323;-59
2023/04/26 01:42:01;;;;;;;5.10;3.07;;;7.30;1.00;;;;;;5045649;28;20180;-60
2023/04/26 01:44:27;;;;;;;4.80;2.67;;;7.40;1.00;;;;;;5049786;28;20471;-59
2023/04/26 01:46:53;;;;;;;3.33;3.03;;;7.50;1.00;;;;;;5043046;28;20443;-59
2023/04/26 01:49:18;;;;;;;5.30;3.63;;;7.40;1.00;;;;;;5049044;28;20707;-58
2023/04/26 01:51:44;;;;;;;5.50;2.90;;;7.40;1.00;;;;;;5043567;28;20197;-59
2023/04/26 01:54:10;;;;;;;6.00;2.97;;;7.40;1.00;;;;;;5045523;28;20192;-59
2023/04/26 01:56:35;;;;;;;4.27;3.07;;;7.20;1.00;;;;;;5045353;28;20568;-59
2023/04/26 01:59:01;;;;;;;6.60;3.50;;;7.20;1.00;;;;;;5048126;28;20235;-57
2023/04/26 02:01:27;;;;;;;8.17;3.00;;;7.40;1.00;;;;;;5043867;28;20589;-58
2023/04/26 02:03:52;;;;;;;4.57;3.23;;;7.50;1.00;;;;;;5047099;28;20195;-59
2023/04/26 02:06:18;;;;;;;5.30;3.20;;;7.30;1.00;;;;;;5048672;28;20185;-59
2023/04/26 02:08:44;;;;;;;5.77;2.97;;;7.30;1.00;;;;;;5048396;28;20251;-59
2023/04/26 02:11:10;;;;;;;6.97;2.90;;;7.20;1.00;;;;;;5046772;28;20821;-59
2023/04/26 02:13:36;;;;;;;6.00;3.43;;;7.30;1.00;;;;;;5046513;28;20223;-59
2023/04/26 02:16:02;;;;;;;6.07;2.93;;;7.30;1.00;;;;;;5047744;28;20446;-58
2023/04/26 02:18:28;;;;;;;7.17;3.17;;;7.30;1.00;;;;;;5046198;28;20511;-59
2023/04/26 02:20:54;;;;;;;3.77;3.20;;;7.40;1.00;;;;;;5041900;28;20212;-58
2023/04/26 02:23:20;;;;;;;5.83;2.90;;;7.60;1.00;;;;;;5045727;28;21080;-58
2023/04/26 02:25:47;;;;;;;5.30;3.10;;;7.40;1.00;;;;;;5047283;28;20495;-58
2023/04/26 02:28:13;;;;;;;6.60;3.30;;;7.50;1.00;;;;;;5047900;28;20439;-60
2023/04/26 02:30:38;;;;;;;4.27;2.87;;;7.40;1.00;;;;;;5047257;28;20442;-58
2023/04/26 02:33:04;;;;;;;4.90;2.90;;;7.40;1.00;;;;;;5047457;28;20537;-57
2023/04/26 02:35:30;;;;;;;6.73;3.60;;;7.30;1.00;;;;;;5049855;28;20200;-58
2023/04/26 02:37:55;;;;;;;6.43;3.97;;;7.30;1.00;;;;;;5053718;28;20796;-58
2023/04/26 02:40:21;;;;;;;5.03;3.73;;;7.40;1.00;;;;;;5056544;28;20188;-59
2023/04/26 02:42:48;;;;;;;4.47;3.13;;;7.30;1.00;;;;;;5044869;28;20258;-59
2023/04/26 02:45:14;;;;;;;4.57;2.93;;;7.40;1.00;;;;;;5045896;28;20196;-59
2023/04/26 02:47:39;;;;;;;4.50;2.77;;;7.30;1.00;;;;;;5045194;28;20474;-59
2023/04/26 02:50:06;;;;;;;4.23;2.70;;;7.40;1.00;;;;;;5039423;28;20279;-58
2023/04/26 02:52:33;;;;;;;4.60;3.37;;;7.30;1.00;;;;;;5046863;28;20270;-59
2023/04/26 02:54:59;;;;;;;12.23;4.50;;;7.30;1.00;;;;;;5043541;28;20447;-58
2023/04/26 02:57:25;;;;;;;6.90;3.50;;;7.20;1.00;;;;;;5049314;28;20449;-59
2023/04/26 02:59:51;;;;;;;7.87;3.60;;;7.30;1.00;;;;;;5047134;28;20470;-59
2023/04/26 03:02:17;;;;;;;5.33;2.80;;;7.30;1.00;;;;;;5040911;28;20668;-58
2023/04/26 03:04:42;;;;;;;3.93;3.20;;;7.30;1.00;;;;;;5045937;28;20184;-58
2023/04/26 03:07:08;;;;;;;5.50;3.07;;;7.20;1.00;;;;;;5045721;28;20192;-58
2023/04/26 03:09:33;;;;;;;6.33;3.77;;;7.20;1.00;;;;;;5045807;28;20200;-57
2023/04/26 03:11:59;;;;;;;6.37;3.13;;;7.20;1.00;;;;;;5048003;28;20200;-59
2023/04/26 03:14:25;;;;;;;12.40;3.50;;;7.20;1.00;;;;;;5049209;28;20192;-63
2023/04/26 03:16:52;;;;;;;5.33;3.00;;;7.10;1.00;;;;;;5045265;28;20176;-58
2023/04/26 03:19:17;;;;;;;7.00;3.77;;;7.00;1.00;;;;;;5044588;28;20470;-59
2023/04/26 03:21:43;;;;;;;8.37;3.47;;;6.90;1.00;;;;;;5046918;28;20477;-58
2023/04/26 03:24:10;;;;;;;5.37;3.50;;;6.90;1.00;;;;;;5049119;28;20271;-57
2023/04/26 03:26:36;;;;;;;9.20;3.60;;;6.90;1.00;;;;;;5048405;28;20200;-57
2023/04/26 03:29:02;;;;;;;4.87;3.70;;;6.80;1.00;;;;;;5054539;28;20724;-57
2023/04/26 03:31:27;;;;;;;7.93;3.30;;;6.80;1.00;;;;;;5052630;28;20527;-58
2023/04/26 03:33:53;;;;;;;5.93;3.03;;;6.80;1.00;;;;;;5050978;28;20477;-57
2023/04/26 03:36:19;;;;;;;4.30;3.83;;;6.80;1.00;;;;;;5052686;28;20198;-58
2023/04/26 03:38:45;;;;;;;7.80;3.50;;;6.70;1.00;;;;;;5047948;28;20207;-59
2023/04/26 03:41:11;;;;;;;5.17;3.10;;;6.70;1.00;;;;;;5049638;28;20793;-57
2023/04/26 03:43:36;;;;;;;4.67;3.07;;;6.70;1.00;;;;;;5055716;28;20175;-57
2023/04/26 03:46:03;;;;;;;9.43;4.10;;;6.60;1.00;;;;;;5054210;28;20999;-58
2023/04/26 03:48:29;;;;;;;7.43;3.80;;;6.60;1.00;;;;;;5051615;28;20188;-58
2023/04/26 03:50:54;;;;;;;4.00;2.93;;;6.70;1.00;;;;;;5049873;28;20446;-57
2023/04/26 03:53:20;;;;;;;7.27;3.60;;;6.60;1.00;;;;;;5052428;28;20267;-58
2023/04/26 03:55:46;;;;;;;7.00;3.33;;;6.50;1.00;;;;;;5053931;28;20669;-58
2023/04/26 03:58:11;;;;;;;5.33;3.00;;;6.60;1.00;;;;;;5055474;28;20275;-58
2023/04/26 04:00:38;;;;;;;6.07;3.23;;;6.60;1.00;;;;;;5054751;28;20238;-57
2023/04/26 04:03:05;;;;;;;3.87;2.80;;;6.60;1.00;;;;;;5050843;28;20219;-58
2023/04/26 04:05:31;;;;;;;5.90;3.50;;;6.60;1.00;;;;;;5052760;28;20461;-58
2023/04/26 04:07:57;;;;;;;6.90;3.03;;;6.40;1.00;;;;;;5049893;28;20447;-58
2023/04/26 04:10:22;;;;;;;4.10;3.17;;;6.40;1.00;;;;;;5052085;28;20453;-59
2023/04/26 04:12:49;;;;;;;3.63;3.33;;;6.50;1.00;;;;;;5053474;28;20192;-57
2023/04/26 04:15:15;;;;;;;8.50;3.20;;;6.50;1.00;;;;;;5053386;28;20495;-58
2023/04/26 04:17:41;;;;;;;4.73;2.93;;;6.40;1.00;;;;;;5051501;28;20827;-58
2023/04/26 04:20:07;;;;;;;11.47;3.10;;;6.50;1.00;;;;;;5053165;28;20477;-58
2023/04/26 04:22:33;;;;;;;6.07;2.90;;;6.50;1.00;;;;;;5053440;28;20191;-57
2023/04/26 04:24:59;;;;;;;5.70;3.17;;;6.60;1.00;;;;;;5064318;28;20832;-59
2023/04/26 04:27:25;;;;;;;5.40;3.23;;;6.50;1.00;;;;;;5051734;28;20657;-58
2023/04/26 04:29:52;;;;;;;7.60;4.40;;;6.70;1.00;;;;;;5053749;28;20196;-58
2023/04/26 04:32:18;;;;;;;4.43;3.20;;;6.70;1.00;;;;;;5052446;28;20836;-58
2023/04/26 04:34:44;;;;;;;3.67;2.83;;;6.70;1.00;;;;;;5052373;28;20438;-57
2023/04/26 04:37:10;;;;;;;4.73;2.60;;;6.70;1.00;;;;;;5049031;28;20944;-58
2023/04/26 04:39:36;;;;;;;5.70;2.93;;;6.80;1.00;;;;;;5050497;28;20472;-59
2023/04/26 04:42:02;;;;;;;8.47;2.97;;;6.80;1.00;;;;;;5048258;28;21022;-59
2023/04/26 04:44:28;;;;;;;5.87;3.50;;;6.90;1.00;;;;;;5050119;28;20482;-58
2023/04/26 04:46:55;;;;;;;8.83;3.00;;;6.80;1.00;;;;;;5051178;28;20459;-59
2023/04/26 04:49:21;;;;;;;7.20;3.30;;;6.90;1.00;;;;;;5049660;28;20593;-59
2023/04/26 04:51:46;;;;;;;6.40;2.93;;;6.90;1.00;;;;;;5043933;28;20467;-58
2023/04/26 04:54:14;;;;;;;4.90;3.00;;;7.10;1.00;;;;;;5048599;28;20188;-58
2023/04/26 04:56:39;;;;;;;9.60;2.60;;;6.90;1.00;;;;;;5046000;28;20755;-59
2023/04/26 04:59:05;;;;;;;14.40;2.87;;;7.00;1.00;;;;;;5045336;28;20482;-59
2023/04/26 05:01:32;;;;;;;8.00;3.67;;;7.10;1.00;;;;;;5041985;28;22415;-58
2023/04/26 05:03:58;;;;;;;5.70;3.30;;;7.00;1.00;;;;;;5046171;28;20590;-59
2023/04/26 05:06:24;;;;;;;4.03;2.90;;;6.90;1.00;;;;;;5062748;28;20861;-58
2023/04/26 05:08:50;;;;;;;3.13;2.77;;;7.00;1.00;;;;;;5063857;28;20474;-59
2023/04/26 05:11:15;;;;;;;3.50;2.63;;;7.10;1.00;;;;;;5047772;28;20571;-58
2023/04/26 05:13:41;;;;;;;6.00;2.87;;;7.10;1.00;;;;;;5047955;28;20188;-59
2023/04/26 05:16:06;;;;;;;7.90;3.63;;;7.10;1.00;;;;;;5054182;28;20185;-58
2023/04/26 05:18:32;;;;;;;8.70;3.90;;;7.10;1.00;;;;;;5047811;28;20258;-58
2023/04/26 05:20:57;;;;;;;6.17;3.90;;;7.20;1.00;;;;;;5048464;28;20546;-58
2023/04/26 05:23:23;;;;;;;6.97;3.40;;;7.30;1.00;;;;;;5046992;28;20670;-58
2023/04/26 05:25:53;;;;;;;7.40;3.50;;;7.30;1.00;;;;;;5046909;28;20188;-58
2023/04/26 05:28:18;;;;;;;9.17;4.17;;;7.40;1.00;;;;;;5048269;28;20189;-58
2023/04/26 05:30:45;;;;;;;5.60;2.80;;;7.40;1.00;;;;;;5048230;28;20956;-59
2023/04/26 05:33:11;;;;;;;4.30;2.50;;;7.40;1.00;;;;;;5047242;28;20180;-58
2023/04/26 05:35:36;;;;;;;3.90;2.40;;;7.50;1.00;;;;;;5045809;28;20499;-59
2023/04/26 05:38:02;;;;;;;7.87;3.20;;;7.50;1.00;;;;;;5049861;28;20661;-59
2023/04/26 05:40:28;;;;;;;5.40;3.60;;;7.50;1.00;;;;;;5044685;28;20191;-59
2023/04/26 05:42:54;;;;;;;6.00;3.17;;;7.60;1.00;;;;;;5044308;28;20451;-59
2023/04/26 05:45:19;;;;;;;5.03;2.73;;;7.70;1.00;;;;;;5049605;28;20188;-59
2023/04/26 05:47:46;;;;;;;5.83;3.00;;;7.80;1.00;;;;;;5048384;28;20196;-58
2023/04/26 05:50:12;;;;;;;7.10;3.00;;;7.70;1.00;;;;;;5043268;28;20188;-57
2023/04/26 05:52:38;;;;;;;9.40;3.80;;;7.60;1.00;;;;;;5046341;28;20449;-57
2023/04/26 05:55:04;;;;;;;6.43;3.53;;;7.70;1.00;;;;;;5061560;28;20255;-56
2023/04/26 05:57:30;;;;;;;7.20;2.70;;;7.80;1.00;;;;;;5048455;28;20193;-57
2023/04/26 05:59:56;;;;;;;5.40;2.70;;;8.00;1.00;;;;;;5048874;28;20585;-57
2023/04/26 06:02:21;;;;;;;9.00;3.70;;;8.10;1.00;;;;;;5048221;28;20207;-56
2023/04/26 06:04:47;;;;;;;8.60;3.97;;;8.10;1.00;;;;;;5049417;28;20242;-58
2023/04/26 06:07:13;;;;;;;7.87;4.10;;;8.20;1.00;;;;;;5043731;28;20185;-58
2023/04/26 06:09:38;;;;;;;10.10;3.30;;;8.00;1.00;;;;;;5050470;28;20646;-58
2023/04/26 06:12:04;;;;;;;8.23;3.40;;;8.00;1.00;;;;;;5049926;28;20208;-57
2023/04/26 06:14:30;;;;;;;9.83;3.20;;;8.00;1.00;;;;;;5046397;28;20246;-59
2023/04/26 06:16:56;;;;;;;7.43;2.77;;;8.10;1.00;;;;;;5043643;28;20807;-58
2023/04/26 06:19:21;;;;;;;5.50;4.00;;;8.00;1.00;;;;;;5042399;28;20220;-58
2023/04/26 06:21:53;;;;;;;5.77;2.47;;;8.20;1.00;;;;;;5046736;28;20438;-58
2023/04/26 06:24:19;;;;;;;8.37;2.77;;;8.20;1.00;;;;;;5046740;28;20212;-59
2023/04/26 06:26:45;;;;;;;7.70;3.40;;;8.40;1.00;;;;;;5048514;28;20479;-57
2023/04/26 06:29:10;;;;;;;8.10;3.07;;;8.10;1.00;;;;;;5047762;28;20211;-58
2023/04/26 06:31:36;;;;;;;4.07;2.80;;;8.10;1.00;;;;;;5048995;28;20192;-58
2023/04/26 06:34:02;;;;;;;4.93;2.87;;;8.40;1.00;;;;;;5046988;28;20188;-58
2023/04/26 06:36:28;;;;;;;7.50;2.60;;;8.70;1.00;;;;;;5044292;28;20258;-59
2023/04/26 06:38:53;;;;;;;6.27;2.97;;;8.70;1.00;;;;;;5041769;28;20227;-58
2023/04/26 06:41:21;;;;;;;8.80;3.20;;;8.60;1.00;;;;;;5046119;28;20470;-58
2023/04/26 06:43:47;;;;;;;8.00;3.30;;;8.70;1.00;;;;;;5036506;28;20193;-59
2023/04/26 06:46:13;;;;;;;10.43;2.73;;;8.70;1.00;;;;;;5048291;28;20501;-58
2023/04/26 06:48:38;;;;;;;9.93;2.87;;;8.60;1.00;;;;;;5043116;28;20450;-58
2023/04/26 06:51:07;;;;;;;7.37;3.20;;;8.70;99.90;;;;;;5051917;28;20444;-58
2023/04/26 06:53:36;;;;;;;8.00;2.70;;;8.80;99.90;;;;;;5045489;28;20202;-58
2023/04/26 06:56:02;;;;;;;5.57;2.70;;;8.80;99.90;;;;;;5042128;28;20624;-58
2023/04/26 06:58:27;;;;;;;8.20;3.60;;;8.70;99.90;;;;;;5048351;28;21019;-58
2023/04/26 07:00:53;;;;;;;8.97;2.80;;;8.80;99.90;;;;;;5043380;28;20200;-59
2023/04/26 07:03:19;;;;;;;6.53;2.50;;;8.90;99.90;;;;;;5046335;28;20263;-59
2023/04/26 07:05:45;;;;;;;6.63;2.50;;;8.90;99.90;;;;;;5046457;28;21280;-55
2023/04/26 07:08:10;;;;;;;6.30;2.50;;;8.90;99.90;;;;;;5046677;28;20211;-56
2023/04/26 07:10:38;;;;;;;8.83;3.47;;;8.80;99.90;;;;;;5043733;28;20192;-56
2023/04/26 07:13:03;;;;;;;6.57;2.20;;;8.80;99.90;;;;;;5048496;28;20181;-57
2023/04/26 07:15:30;;;;;;;10.20;3.60;;;8.60;99.90;;;;;;5043112;28;20454;-54
2023/04/26 07:17:55;;;;;;;4.93;3.00;;;8.60;99.90;;;;;;5044949;28;20316;-63
2023/04/26 07:20:21;;;;;;;7.20;3.10;;;9.00;99.90;;;;;;5045167;28;20562;-56
2023/04/26 07:22:47;;;;;;;7.03;2.87;;;9.00;99.90;;;;;;5048056;28;20670;-57
2023/04/26 07:25:13;;;;;;;4.47;2.90;;;9.40;99.90;;;;;;5043624;28;20450;-57
2023/04/26 07:27:39;;;;;;;9.20;2.97;;;9.50;99.90;;;;;;5051574;28;20185;-56
2023/04/26 07:30:09;;;;;;;4.30;2.70;;;9.60;99.90;;;;;;5046738;28;20451;-57
2023/04/26 07:32:35;;;;;;;6.90;3.00;;;9.60;99.90;;;;;;5045295;28;20212;-56
2023/04/26 07:35:06;;;;;;;6.10;2.17;;;9.60;99.90;;;;;;5042857;28;20793;-56
2023/04/26 07:37:32;;;;;;;5.80;1.90;;;9.80;99.90;;;;;;5041405;28;20676;-56
2023/04/26 07:39:57;;;;;;;5.87;2.20;;;9.60;99.90;;;;;;5049581;28;20471;-56
2023/04/26 07:42:24;;;;;;;3.90;2.40;;;9.40;99.90;;;;;;5046389;28;20203;-57
2023/04/26 07:44:50;;;;;;;3.97;2.10;;;9.10;99.90;;;;;;5045601;28;20749;-57
2023/04/26 07:47:15;;;;;;;6.80;2.27;;;9.40;99.90;;;;;;5049400;28;20188;-58
2023/04/26 07:49:41;;;;;;;4.53;1.80;;;9.60;99.90;;;;;;5043643;28;20326;-57
2023/04/26 07:52:09;;;;;;;5.73;2.00;;;9.90;99.90;;;;;;5049300;28;20229;-57
2023/04/26 07:54:35;;;;;;;6.10;1.93;;;10.30;99.90;;;;;;5042273;28;20646;-57
2023/04/26 07:57:01;;;;;;;5.70;2.30;;;10.10;99.90;;;;;;5050863;28;20481;-57
2023/04/26 07:59:27;;;;;;;10.37;5.33;;;9.70;99.90;;;;;;5047515;28;20486;-57
2023/04/26 08:01:52;;;;;;;6.10;2.70;;;9.40;99.90;;;;;;5048058;28;20187;-56
2023/04/26 08:04:32;;;;;;;6.77;2.83;;;9.50;99.90;;;;;;5049246;28;20173;-58
2023/04/26 08:07:01;;;;;;;8.73;2.10;;;9.90;99.90;;;;;;5044639;28;20266;-57
2023/04/26 08:09:28;;;;;;;3.90;2.37;;;10.00;99.90;;;;;;5040806;28;20459;-57
2023/04/26 08:11:54;;;;;;;6.37;2.70;;;9.50;99.90;;;;;;5046229;28;20836;-57
2023/04/26 08:14:20;;;;;;;5.30;1.73;;;9.70;99.90;;;;;;5045008;28;20778;-57
2023/04/26 08:16:45;;;;;;;5.97;2.50;;;10.20;99.90;;;;;;5051503;28;20458;-59
2023/04/26 08:19:11;;;;;;;5.70;1.90;;;10.10;99.90;;;;;;5050325;28;20211;-57
2023/04/26 08:21:36;;;;;;;9.70;2.80;;;10.10;99.90;;;;;;5051568;28;20256;-57
2023/04/26 08:24:02;;;;;;;6.93;2.40;;;9.90;99.90;;;;;;5046264;28;20263;-57
2023/04/26 08:26:28;;;;;;;8.63;2.80;;;10.00;99.90;;;;;;5052637;28;20204;-57
2023/04/26 08:28:54;;;;;;;5.23;2.13;;;10.00;99.90;;;;;;5050774;28;20199;-58
2023/04/26 08:31:21;;;;;;;4.90;2.97;;;10.00;99.90;;;;;;5059979;28;20186;-58
2023/04/26 08:33:47;;;;;;;4.27;2.27;;;9.90;99.90;;;;;;5052351;28;20478;-58
2023/04/26 08:36:12;;;;;;;6.47;2.00;;;9.80;99.90;;;;;;5051666;28;20474;-58
2023/04/26 08:38:38;;;;;;;5.73;2.70;;;9.50;99.90;;;;;;5048376;28;20205;-58
2023/04/26 08:41:04;;;;;;;10.40;2.50;;;9.50;99.90;;;;;;5052883;28;20183;-57
2023/04/26 08:43:30;;;;;;;5.00;2.87;;;9.50;99.90;;;;;;5048760;28;20177;-57
2023/04/26 08:45:58;;;;;;;5.03;2.23;;;9.50;99.90;;;;;;5052405;28;21091;-57
2023/04/26 08:48:25;;;;;;;8.23;2.37;;;9.60;99.90;;;;;;5057524;28;20282;-58
2023/04/26 08:50:52;;;;;;;5.33;2.20;;;9.80;99.90;;;;;;5063757;28;20442;-58
2023/04/26 08:53:17;;;;;;;8.03;2.20;;;10.10;99.90;;;;;;5052370;28;21014;-58
2023/04/26 08:55:50;;;;;;;6.63;2.33;;;11.00;99.90;;;;;;5050707;28;20470;-57
2023/04/26 08:58:20;;;;;;;2.90;2.47;;;11.10;99.90;;;;;;5048007;28;20192;-58
2023/04/26 09:00:45;;;;;;;6.50;2.17;;;11.00;99.90;;;;;;5050780;28;20943;-59
2023/04/26 09:03:11;;;;;;;6.30;2.00;;;10.60;99.90;;;;;;5049796;28;20442;-57
2023/04/26 09:05:43;;;;;;;6.50;2.53;;;10.60;99.90;;;;;;5051912;28;20673;-59
2023/04/26 09:08:12;;;;;;;4.97;1.73;;;10.70;99.90;;;;;;5048727;28;20192;-59
2023/04/26 09:10:38;;;;;;;5.70;2.53;;;10.70;99.90;;;;;;5057433;28;20450;-58
2023/04/26 09:13:03;;;;;;;3.93;2.23;;;10.50;99.90;;;;;;5052117;28;20443;-60
2023/04/26 09:15:29;;;;;;;2.77;1.83;;;10.30;99.90;;;;;;5051312;28;20195;-60
2023/04/26 09:17:54;;;;;;;4.70;2.50;;;10.30;99.90;;;;;;5041041;28;20185;-61
2023/04/26 09:20:30;;;;;;;8.97;2.80;;;10.30;99.90;;;;;;5061314;28;20210;-61
2023/04/26 09:23:09;;;;;;;8.67;3.13;;;10.30;99.90;;;;;;5051202;28;20180;-61
2023/04/26 09:25:35;;;;;;;3.53;2.23;;;10.80;99.90;;;;;;5046440;28;20474;-61
2023/04/26 09:28:02;;;;;;;5.87;2.50;;;11.10;99.90;;;;;;5048658;28;20443;-62
2023/04/26 09:30:29;;;;;;;8.60;3.07;;;11.10;99.90;;;;;;5050144;28;20458;-62
2023/04/26 09:33:03;;;;;;;7.63;3.10;;;11.10;99.90;;;;;;5052590;28;20442;-61
2023/04/26 09:35:32;;;;;;;5.63;2.80;;;10.80;99.90;;;;;;5048284;28;20497;-61
2023/04/26 09:38:08;;;;;;;3.43;1.93;;;11.00;99.90;;;;;;5043567;28;20451;-61
2023/04/26 09:40:39;;;;;;;5.30;2.23;;;11.30;99.90;;;;;;5048606;28;20485;-60
2023/04/26 09:43:16;;;;;;;7.07;2.50;;;11.60;99.90;;;;;;5048119;28;20538;-61
2023/04/26 09:45:49;;;;;;;6.00;2.57;;;11.70;99.90;;;;;;5049738;28;20438;-62
2023/04/26 09:48:27;;;;;;;6.50;4.60;;;11.70;99.90;;;;;;5051850;28;20441;-60
2023/04/26 09:50:55;;;;;;;3.53;2.47;;;11.00;99.90;;;;;;5059477;28;20515;-62
2023/04/26 09:53:33;;;;;;;6.30;2.73;;;10.90;99.90;;;;;;5046594;28;20520;-60
2023/04/26 09:56:10;;;;;;;4.03;1.67;;;10.50;99.90;;;;;;5057522;28;20473;-62
2023/04/26 09:58:38;;;;;;;5.07;2.00;;;10.50;99.90;;;;;;5047983;28;20469;-62
2023/04/26 10:01:05;;;;;;;7.13;2.33;;;11.00;99.90;;;;;;5048368;28;20453;-61
2023/04/26 10:03:33;;;;;;;3.20;2.10;;;11.30;99.90;;;;;;5046879;28;21085;-60
2023/04/26 10:05:59;;;;;;;4.73;2.30;;;11.30;99.90;;;;;;5056872;28;20449;-61
2023/04/26 10:08:25;;;;;;;3.40;1.77;;;11.30;99.90;;;;;;5058155;28;20581;-60
2023/04/26 10:10:51;;;;;;;5.47;2.07;;;11.10;99.90;;;;;;5049921;28;20179;-61
2023/04/26 10:13:17;;;;;;;6.60;2.77;;;11.40;99.90;;;;;;5045574;28;20475;-61
2023/04/26 10:15:44;;;;;;;2.90;2.30;;;11.70;99.90;;;;;;5045249;28;20446;-61
2023/04/26 10:18:10;;;;;;;7.80;2.47;;;12.00;99.90;;;;;;5047841;28;20820;-61
2023/04/26 10:20:41;;;;;;;4.97;2.10;;;11.80;99.90;;;;;;5045718;28;20450;-58
2023/04/26 10:23:15;;;;;;;3.70;1.90;;;11.50;99.90;;;;;;5061603;28;20529;-59
2023/04/26 10:25:41;;;;;;;4.63;1.70;;;11.10;99.90;;;;;;5043981;28;21135;-60
2023/04/26 10:28:07;;;;;;;11.57;2.67;;;11.10;99.90;;;;;;5044657;28;20478;-61
2023/04/26 10:30:56;;;;;;;4.60;2.40;;;11.00;99.90;;;;;;5045062;28;20192;-59
2023/04/26 10:33:23;;;;;;;4.93;1.97;;;11.00;99.90;;;;;;5049536;28;20816;-61
2023/04/26 10:36:19;;;;;;;5.57;2.33;;;10.80;99.90;;;;;;5047265;28;20978;-61
2023/04/26 10:39:30;;;;;;;3.53;2.47;;;10.90;99.90;;;;;;5044239;28;20478;-61
2023/04/26 10:42:22;;;;;;;6.30;2.37;;;11.10;99.90;;;;;;5046488;28;20450;-58
2023/04/26 10:44:54;;;;;;;3.67;2.40;;;11.40;99.90;;;;;;5049982;28;20450;-58
2023/04/26 10:47:30;;;;;;;10.93;2.93;;;11.60;99.90;;;;;;5043381;28;20488;-58
2023/04/26 10:50:08;;;;;;;10.67;3.10;;;11.30;99.90;;;;;;5046938;28;20549;-58
2023/04/26 10:52:35;;;;;;;8.73;3.50;;;11.60;99.90;;;;;;5045801;28;20453;-58
2023/04/26 10:55:01;;;;;;;6.60;2.47;;;12.00;99.90;;;;;;5047049;28;20478;-59
2023/04/26 10:57:48;;;;;;;8.00;3.20;;;12.00;99.90;;;;;;5042460;28;20459;-57
2023/04/26 11:00:19;;;;;;;6.53;2.30;;;11.80;99.90;;;;;;5045734;28;20240;-59
2023/04/26 11:02:51;;;;;;;8.60;2.90;;;11.30;99.90;;;;;;5048993;28;20503;-58
2023/04/26 11:05:36;;;;;;;7.10;2.30;;;11.30;99.90;;;;;;5046177;28;20447;-58
2023/04/26 11:08:05;;;;;;;5.70;3.70;;;11.10;99.90;;;;;;5047372;28;20534;-58
2023/04/26 11:10:31;;;;;;;6.63;2.80;;;11.10;99.90;;;;;;5044244;28;20451;-59
2023/04/26 11:13:02;;;;;;;9.00;2.30;;;11.20;99.90;;;;;;5052390;28;20549;-58
2023/04/26 11:15:29;;;;;;;5.20;2.50;;;11.20;99.90;;;;;;5058621;28;20652;-59
2023/04/26 11:17:55;;;;;;;3.97;2.70;;;11.30;99.90;;;;;;5049396;28;20442;-58
2023/04/26 11:20:21;;;;;;;7.80;2.83;;;11.60;99.90;;;;;;5048308;28;20573;-59
2023/04/26 11:22:46;;;;;;;3.70;2.70;;;11.80;99.90;;;;;;5056285;28;20610;-58
2023/04/26 11:25:13;;;;;;;7.33;3.40;;;11.70;99.90;;;;;;5046117;28;20184;-58
2023/04/26 11:27:41;;;;;;;5.73;2.80;;;11.70;99.90;;;;;;5045418;28;20181;-59
2023/04/26 11:30:08;;;;;;;4.37;2.67;;;11.90;99.90;;;;;;5041928;28;20458;-58
2023/04/26 11:32:34;;;;;;;4.50;3.20;;;11.80;99.90;;;;;;5044985;28;20458;-58
2023/04/26 11:35:00;;;;;;;5.53;2.70;;;12.00;99.90;;;;;;5049598;28;20499;-58
2023/04/26 11:37:25;;;;;;;5.23;3.03;;;12.10;99.90;;;;;;5049897;28;20642;-59
2023/04/26 11:39:51;;;;;;;2.90;1.83;;;12.20;99.90;;;;;;5041601;28;20218;-59
2023/04/26 11:42:17;;;;;;;5.10;2.50;;;12.40;99.90;;;;;;5047489;28;20447;-59
2023/04/26 11:44:42;;;;;;;4.30;2.40;;;12.00;99.90;;;;;;5047905;28;20177;-59
2023/04/26 11:47:08;;;;;;;4.20;2.07;;;11.60;99.90;;;;;;5047670;28;20268;-60
2023/04/26 11:49:37;;;;;;;3.10;1.80;;;11.20;99.90;;;;;;5047532;28;20199;-58
2023/04/26 11:52:04;;;;;;;3.50;2.50;;;11.10;99.90;;;;;;5045141;28;20454;-60
2023/04/26 11:54:32;;;;;;;4.67;2.00;;;11.20;99.90;;;;;;5049234;28;20434;-60
2023/04/26 11:56:58;;;;;;;5.10;2.90;;;11.00;99.90;;;;;;5055138;28;20546;-60
2023/04/26 11:59:25;;;;;;;5.03;2.73;;;10.70;99.90;;;;;;5053262;28;20467;-59
2023/04/26 12:01:53;;;;;;;2.50;2.30;;;10.70;99.90;;;;;;5050247;28;20967;-60
2023/04/26 12:04:25;;;;;;;3.33;2.30;;;10.90;99.90;;;;;;5050218;28;20557;-59
2023/04/26 12:06:51;;;;;;;5.37;2.90;;;11.10;99.90;;;;;;5046789;28;20444;-59
2023/04/26 12:09:22;;;;;;;4.10;2.07;;;11.30;99.90;;;;;;5048628;28;20443;-60
2023/04/26 12:11:57;;;;;;;9.73;3.70;;;11.60;99.90;;;;;;5042533;28;20967;-59
2023/04/26 12:14:32;;;;;;;6.93;2.60;;;12.00;99.90;;;;;;5051655;28;20847;-58
2023/04/26 12:17:02;;;;;;;4.90;3.80;;;12.00;99.90;;;;;;5050189;28;21969;-58
2023/04/26 12:19:38;;;;;;;5.90;2.80;;;12.30;99.90;;;;;;5049767;28;20949;-59
2023/04/26 12:22:05;;;;;;;3.20;2.63;;;12.70;99.90;;;;;;5047525;28;20440;-59
2023/04/26 12:24:33;;;;;;;3.43;2.80;;;12.90;99.90;;;;;;5046754;28;20442;-59
2023/04/26 12:27:01;;;;;;;7.50;3.20;;;12.60;99.90;;;;;;5047648;28;20534;-59
2023/04/26 12:29:29;;;;;;;4.40;2.90;;;12.20;99.90;;;;;;5051035;28;20445;-59
2023/04/26 12:31:58;;;;;;;5.40;3.30;;;12.30;99.90;;;;;;5051739;28;20438;-59
2023/04/26 12:34:24;;;;;;;4.80;3.30;;;12.40;99.90;;;;;;5060139;28;20529;-59
2023/04/26 12:36:49;;;;;;;4.23;3.10;;;12.70;99.90;;;;;;5051358;28;20537;-57
2023/04/26 12:39:15;;;;;;;7.00;4.80;;;12.40;99.90;;;;;;5051825;28;20250;-58
2023/04/26 12:41:42;;;;;;;3.07;2.77;;;12.00;99.90;;;;;;5048500;28;20212;-58
2023/04/26 12:44:08;;;;;;;6.00;4.07;;;11.80;99.90;;;;;;5047043;28;20447;-59
2023/04/26 12:46:34;;;;;;;6.40;3.10;;;11.90;99.90;;;;;;5051718;28;20798;-58
2023/04/26 12:49:00;;;;;;;5.17;2.80;;;12.30;99.90;;;;;;5050960;28;20532;-57
2023/04/26 12:51:26;;;;;;;8.50;3.90;;;12.40;99.90;;;;;;5047026;28;20485;-59
2023/04/26 12:53:52;;;;;;;10.00;3.43;;;12.60;99.90;;;;;;5045550;28;20283;-59
2023/04/26 12:56:17;;;;;;;4.60;2.60;;;12.70;99.90;;;;;;5044613;28;20231;-57
2023/04/26 12:58:43;;;;;;;4.43;3.30;;;12.80;99.90;;;;;;5051761;28;20362;-58